sensor_id;sensor_type;location;lat;lon;timestamp;pressure;altitude;pressure_sealevel;temperature;humidity
70250;BME280;57644;48.416;-123.374;2023-02-28T00:01:50;99570.77;;;-3.40;100.00
70250;BME280;57644;48.416;-123.374;2023-02-28T00:04:21;99568.36;;;-3.26;100.00
70250;BME280;57644;48.416;-123.374;2023-02-28T00:06:52;99569.43;;;-3.17;100.00
70250;BME280;57644;48.416;-123.374;2023-02-28T00:09:22;99564.48;;;-3.11;100.00
70250;BME280;57644;48.416;-123.374;2023-02-28T00:11:53;99561.84;;;-3.21;100.00
70250;BME280;57644;48.416;-123.374;2023-02-28T00:14:23;99561.45;;;-3.21;100.00
70250;BME280;57644;48.416;-123.374;2023-02-28T00:16:54;99556.85;;;-3.16;100.00
70250;BME280;57644;48.416;-123.374;2023-02-28T00:19:25;99557.84;;;-3.09;100.00
70250;BME280;57644;48.416;-123.374;2023-02-28T00:21:55;99558.50;;;-3.18;100.00
70250;BME280;57644;48.416;-123.374;2023-02-28T00:24:26;99559.18;;;-3.19;100.00
70250;BME280;57644;48.416;-123.374;2023-02-28T00:26:56;99557.40;;;-3.18;100.00
70250;BME280;57644;48.416;-123.374;2023-02-28T00:29:27;99549.15;;;-3.12;100.00
70250;BME280;57644;48.416;-123.374;2023-02-28T00:31:58;99545.59;;;-3.12;100.00
70250;BME280;57644;48.416;-123.374;2023-02-28T00:34:29;99539.10;;;-3.28;100.00
70250;BME280;57644;48.416;-123.374;2023-02-28T00:36:59;99540.47;;;-3.39;100.00
70250;BME280;57644;48.416;-123.374;2023-02-28T00:39:30;99536.93;;;-3.38;100.00
70250;BME280;57644;48.416;-123.374;2023-02-28T00:42:01;99536.66;;;-3.47;100.00
70250;BME280;57644;48.416;-123.374;2023-02-28T00:44:31;99536.00;;;-3.51;100.00
70250;BME280;57644;48.416;-123.374;2023-02-28T00:47:01;99531.18;;;-3.48;100.00
70250;BME280;57644;48.416;-123.374;2023-02-28T00:49:32;99533.19;;;-3.69;100.00
70250;BME280;57644;48.416;-123.374;2023-02-28T00:52:03;99529.54;;;-3.74;100.00
70250;BME280;57644;48.416;-123.374;2023-02-28T00:54:33;99527.31;;;-3.75;100.00
70250;BME280;57644;48.416;-123.374;2023-02-28T00:57:04;99525.12;;;-3.76;100.00
70250;BME280;57644;48.416;-123.374;2023-02-28T00:59:34;99526.80;;;-3.91;100.00
70250;BME280;57644;48.416;-123.374;2023-02-28T01:02:05;99526.30;;;-3.81;100.00
70250;BME280;57644;48.416;-123.374;2023-02-28T01:04:36;99530.66;;;-3.94;100.00
70250;BME280;57644;48.416;-123.374;2023-02-28T01:07:07;99527.04;;;-3.89;100.00
70250;BME280;57644;48.416;-123.374;2023-02-28T01:09:37;99529.65;;;-3.85;100.00
70250;BME280;57644;48.416;-123.374;2023-02-28T01:12:08;99531.03;;;-3.80;100.00
70250;BME280;57644;48.416;-123.374;2023-02-28T01:14:38;99527.00;;;-3.74;100.00
70250;BME280;57644;48.416;-123.374;2023-02-28T01:17:09;99519.99;;;-3.74;100.00
70250;BME280;57644;48.416;-123.374;2023-02-28T01:19:39;99516.52;;;-3.75;100.00
70250;BME280;57644;48.416;-123.374;2023-02-28T01:22:10;99514.44;;;-3.92;100.00
70250;BME280;57644;48.416;-123.374;2023-02-28T01:24:40;99510.88;;;-4.03;100.00
70250;BME280;57644;48.416;-123.374;2023-02-28T01:27:11;99510.69;;;-4.06;100.00
70250;BME280;57644;48.416;-123.374;2023-02-28T01:29:42;99502.40;;;-4.18;100.00
70250;BME280;57644;48.416;-123.374;2023-02-28T01:32:12;99502.65;;;-4.30;100.00
70250;BME280;57644;48.416;-123.374;2023-02-28T01:34:43;99499.36;;;-4.13;100.00
70250;BME280;57644;48.416;-123.374;2023-02-28T01:37:14;99495.01;;;-4.11;100.00
70250;BME280;57644;48.416;-123.374;2023-02-28T01:39:45;99491.79;;;-4.23;100.00
70250;BME280;57644;48.416;-123.374;2023-02-28T01:42:15;99489.90;;;-4.11;100.00
70250;BME280;57644;48.416;-123.374;2023-02-28T01:47:16;99490.84;;;-4.21;100.00
70250;BME280;57644;48.416;-123.374;2023-02-28T01:49:47;99490.16;;;-4.27;100.00
70250;BME280;57644;48.416;-123.374;2023-02-28T01:52:18;99488.77;;;-4.20;100.00
70250;BME280;57644;48.416;-123.374;2023-02-28T01:54:52;99486.27;;;-4.26;100.00
70250;BME280;57644;48.416;-123.374;2023-02-28T01:57:22;99484.02;;;-4.29;100.00
70250;BME280;57644;48.416;-123.374;2023-02-28T01:59:53;99482.70;;;-4.32;100.00
70250;BME280;57644;48.416;-123.374;2023-02-28T02:02:21;99478.60;;;-4.40;100.00
70250;BME280;57644;48.416;-123.374;2023-02-28T02:04:55;99479.06;;;-4.40;100.00
70250;BME280;57644;48.416;-123.374;2023-02-28T02:07:22;99485.11;;;-4.34;100.00
70250;BME280;57644;48.416;-123.374;2023-02-28T02:10:00;99484.84;;;-4.39;100.00
70250;BME280;57644;48.416;-123.374;2023-02-28T02:12:29;99488.62;;;-4.38;100.00
70250;BME280;57644;48.416;-123.374;2023-02-28T02:15:02;99485.15;;;-4.26;100.00
70250;BME280;57644;48.416;-123.374;2023-02-28T02:17:30;99501.13;;;-4.59;100.00
70250;BME280;57644;48.416;-123.374;2023-02-28T02:22:38;99506.50;;;-4.51;100.00
70250;BME280;57644;48.416;-123.374;2023-02-28T02:25:10;99513.22;;;-4.70;100.00
70250;BME280;57644;48.416;-123.374;2023-02-28T02:27:37;99513.89;;;-4.42;100.00
70250;BME280;57644;48.416;-123.374;2023-02-28T02:32:40;99507.29;;;-4.42;100.00
70250;BME280;57644;48.416;-123.374;2023-02-28T02:35:05;99515.09;;;-4.28;100.00
70250;BME280;57644;48.416;-123.374;2023-02-28T02:37:36;99515.21;;;-4.25;100.00
70250;BME280;57644;48.416;-123.374;2023-02-28T02:40:04;99508.37;;;-4.28;100.00
70250;BME280;57644;48.416;-123.374;2023-02-28T02:42:38;99502.53;;;-4.38;100.00
70250;BME280;57644;48.416;-123.374;2023-02-28T02:45:03;99500.42;;;-4.60;100.00
70250;BME280;57644;48.416;-123.374;2023-02-28T02:47:32;99492.79;;;-4.47;100.00
70250;BME280;57644;48.416;-123.374;2023-02-28T02:50:05;99495.65;;;-4.51;100.00
70250;BME280;57644;48.416;-123.374;2023-02-28T02:52:36;99490.67;;;-4.86;100.00
70250;BME280;57644;48.416;-123.374;2023-02-28T02:55:04;99491.38;;;-4.92;100.00
70250;BME280;57644;48.416;-123.374;2023-02-28T02:57:36;99489.84;;;-4.90;100.00
70250;BME280;57644;48.416;-123.374;2023-02-28T03:00:06;99488.74;;;-4.92;100.00
70250;BME280;57644;48.416;-123.374;2023-02-28T03:02:36;99487.72;;;-5.06;100.00
70250;BME280;57644;48.416;-123.374;2023-02-28T03:05:14;99487.29;;;-4.95;100.00
70250;BME280;57644;48.416;-123.374;2023-02-28T03:07:36;99482.66;;;-4.93;100.00
70250;BME280;57644;48.416;-123.374;2023-02-28T03:12:48;99483.74;;;-4.88;100.00
70250;BME280;57644;48.416;-123.374;2023-02-28T03:15:11;99480.78;;;-4.85;100.00
70250;BME280;57644;48.416;-123.374;2023-02-28T03:17:48;99480.00;;;-4.93;100.00
70250;BME280;57644;48.416;-123.374;2023-02-28T03:20:17;99478.82;;;-4.94;100.00
70250;BME280;57644;48.416;-123.374;2023-02-28T03:22:46;99478.68;;;-5.01;100.00
70250;BME280;57644;48.416;-123.374;2023-02-28T03:25:18;99474.48;;;-4.97;100.00
70250;BME280;57644;48.416;-123.374;2023-02-28T03:27:45;99473.10;;;-4.97;100.00
70250;BME280;57644;48.416;-123.374;2023-02-28T03:30:17;99470.06;;;-4.95;100.00
70250;BME280;57644;48.416;-123.374;2023-02-28T03:32:49;99468.85;;;-4.93;100.00
70250;BME280;57644;48.416;-123.374;2023-02-28T03:35:18;99464.00;;;-4.93;100.00
70250;BME280;57644;48.416;-123.374;2023-02-28T03:37:45;99461.44;;;-4.95;100.00
70250;BME280;57644;48.416;-123.374;2023-02-28T03:40:17;99461.19;;;-4.95;100.00
70250;BME280;57644;48.416;-123.374;2023-02-28T03:42:48;99456.71;;;-4.91;100.00
70250;BME280;57644;48.416;-123.374;2023-02-28T03:45:19;99459.59;;;-4.96;100.00
70250;BME280;57644;48.416;-123.374;2023-02-28T03:47:51;99455.70;;;-4.83;100.00
70250;BME280;57644;48.416;-123.374;2023-02-28T03:50:20;99455.66;;;-4.91;100.00
70250;BME280;57644;48.416;-123.374;2023-02-28T03:52:50;99453.24;;;-4.95;100.00
70250;BME280;57644;48.416;-123.374;2023-02-28T03:55:19;99450.80;;;-4.98;100.00
70250;BME280;57644;48.416;-123.374;2023-02-28T03:57:56;99451.30;;;-4.99;100.00
70250;BME280;57644;48.416;-123.374;2023-02-28T04:00:24;99446.95;;;-4.92;100.00
70250;BME280;57644;48.416;-123.374;2023-02-28T04:02:50;99443.47;;;-4.89;100.00
70250;BME280;57644;48.416;-123.374;2023-02-28T04:05:21;99440.59;;;-5.19;100.00
70250;BME280;57644;48.416;-123.374;2023-02-28T04:07:51;99440.14;;;-5.19;100.00
70250;BME280;57644;48.416;-123.374;2023-02-28T04:10:22;99440.72;;;-5.39;100.00
70250;BME280;57644;48.416;-123.374;2023-02-28T04:12:53;99436.08;;;-5.31;100.00
70250;BME280;57644;48.416;-123.374;2023-02-28T04:15:23;99432.16;;;-5.20;100.00
70250;BME280;57644;48.416;-123.374;2023-02-28T04:17:54;99437.76;;;-5.20;100.00
70250;BME280;57644;48.416;-123.374;2023-02-28T04:20:25;99446.38;;;-5.14;100.00
70250;BME280;57644;48.416;-123.374;2023-02-28T04:22:55;99449.13;;;-5.02;100.00
70250;BME280;57644;48.416;-123.374;2023-02-28T04:25:26;99448.37;;;-4.91;100.00
70250;BME280;57644;48.416;-123.374;2023-02-28T04:27:56;99445.40;;;-4.94;100.00
70250;BME280;57644;48.416;-123.374;2023-02-28T04:30:27;99438.23;;;-5.21;100.00
70250;BME280;57644;48.416;-123.374;2023-02-28T04:32:58;99439.46;;;-5.25;100.00
70250;BME280;57644;48.416;-123.374;2023-02-28T04:35:28;99438.93;;;-5.37;100.00
70250;BME280;57644;48.416;-123.374;2023-02-28T04:37:59;99434.64;;;-5.28;100.00
70250;BME280;57644;48.416;-123.374;2023-02-28T04:40:30;99437.57;;;-5.17;100.00
70250;BME280;57644;48.416;-123.374;2023-02-28T04:43:00;99439.85;;;-5.06;100.00
70250;BME280;57644;48.416;-123.374;2023-02-28T04:45:31;99440.42;;;-5.05;100.00
70250;BME280;57644;48.416;-123.374;2023-02-28T04:48:02;99444.11;;;-5.00;100.00
70250;BME280;57644;48.416;-123.374;2023-02-28T04:50:32;99445.25;;;-5.09;100.00
70250;BME280;57644;48.416;-123.374;2023-02-28T04:53:03;99438.77;;;-4.91;100.00
70250;BME280;57644;48.416;-123.374;2023-02-28T04:55:34;99436.36;;;-4.85;100.00
70250;BME280;57644;48.416;-123.374;2023-02-28T04:58:04;99432.40;;;-4.81;100.00
70250;BME280;57644;48.416;-123.374;2023-02-28T05:00:35;99432.87;;;-4.87;100.00
70250;BME280;57644;48.416;-123.374;2023-02-28T05:03:06;99429.64;;;-4.81;100.00
70250;BME280;57644;48.416;-123.374;2023-02-28T05:05:37;99428.26;;;-4.70;100.00
70250;BME280;57644;48.416;-123.374;2023-02-28T05:08:07;99428.71;;;-4.60;100.00
70250;BME280;57644;48.416;-123.374;2023-02-28T05:10:37;99425.61;;;-4.64;100.00
70250;BME280;57644;48.416;-123.374;2023-02-28T05:13:11;99424.73;;;-4.61;100.00
70250;BME280;57644;48.416;-123.374;2023-02-28T05:15:39;99423.72;;;-4.80;100.00
70250;BME280;57644;48.416;-123.374;2023-02-28T05:18:09;99424.98;;;-4.94;100.00
70250;BME280;57644;48.416;-123.374;2023-02-28T05:20:40;99426.48;;;-5.02;100.00
70250;BME280;57644;48.416;-123.374;2023-02-28T05:23:12;99425.94;;;-4.85;100.00
70250;BME280;57644;48.416;-123.374;2023-02-28T05:25:41;99423.85;;;-4.76;100.00
70250;BME280;57644;48.416;-123.374;2023-02-28T05:28:12;99423.78;;;-4.64;100.00
70250;BME280;57644;48.416;-123.374;2023-02-28T05:30:42;99425.01;;;-4.58;100.00
70250;BME280;57644;48.416;-123.374;2023-02-28T05:33:14;99424.86;;;-4.57;100.00
70250;BME280;57644;48.416;-123.374;2023-02-28T05:35:44;99424.03;;;-4.61;100.00
70250;BME280;57644;48.416;-123.374;2023-02-28T05:38:14;99426.56;;;-4.51;100.00
70250;BME280;57644;48.416;-123.374;2023-02-28T05:40:45;99423.06;;;-4.63;100.00
70250;BME280;57644;48.416;-123.374;2023-02-28T05:43:16;99423.16;;;-4.63;100.00
70250;BME280;57644;48.416;-123.374;2023-02-28T05:45:46;99426.32;;;-4.66;100.00
70250;BME280;57644;48.416;-123.374;2023-02-28T05:48:17;99424.35;;;-4.63;100.00
70250;BME280;57644;48.416;-123.374;2023-02-28T05:50:48;99424.05;;;-4.72;100.00
70250;BME280;57644;48.416;-123.374;2023-02-28T05:53:18;99426.74;;;-4.83;100.00
70250;BME280;57644;48.416;-123.374;2023-02-28T05:55:49;99425.15;;;-4.80;100.00
70250;BME280;57644;48.416;-123.374;2023-02-28T05:58:20;99425.95;;;-5.14;100.00
70250;BME280;57644;48.416;-123.374;2023-02-28T06:00:50;99427.89;;;-4.89;100.00
70250;BME280;57644;48.416;-123.374;2023-02-28T06:03:20;99428.75;;;-4.95;100.00
70250;BME280;57644;48.416;-123.374;2023-02-28T06:05:52;99427.60;;;-4.92;100.00
70250;BME280;57644;48.416;-123.374;2023-02-28T06:08:22;99423.58;;;-5.02;100.00
70250;BME280;57644;48.416;-123.374;2023-02-28T06:10:52;99422.36;;;-4.80;100.00
70250;BME280;57644;48.416;-123.374;2023-02-28T06:13:23;99422.91;;;-4.84;100.00
70250;BME280;57644;48.416;-123.374;2023-02-28T06:15:54;99424.77;;;-4.83;100.00
70250;BME280;57644;48.416;-123.374;2023-02-28T06:18:24;99419.92;;;-4.79;100.00
70250;BME280;57644;48.416;-123.374;2023-02-28T06:20:55;99414.68;;;-4.81;100.00
70250;BME280;57644;48.416;-123.374;2023-02-28T06:23:26;99420.14;;;-4.81;100.00
70250;BME280;57644;48.416;-123.374;2023-02-28T06:25:56;99415.81;;;-4.87;100.00
70250;BME280;57644;48.416;-123.374;2023-02-28T06:28:27;99412.68;;;-4.87;100.00
70250;BME280;57644;48.416;-123.374;2023-02-28T06:30:57;99415.29;;;-4.95;100.00
70250;BME280;57644;48.416;-123.374;2023-02-28T06:33:28;99417.37;;;-4.96;100.00
70250;BME280;57644;48.416;-123.374;2023-02-28T06:35:59;99411.48;;;-4.89;100.00
70250;BME280;57644;48.416;-123.374;2023-02-28T06:38:30;99411.54;;;-4.97;100.00
70250;BME280;57644;48.416;-123.374;2023-02-28T06:41:01;99414.59;;;-5.04;100.00
70250;BME280;57644;48.416;-123.374;2023-02-28T06:43:33;99415.04;;;-4.91;100.00
70250;BME280;57644;48.416;-123.374;2023-02-28T06:46:05;99414.76;;;-4.80;100.00
70250;BME280;57644;48.416;-123.374;2023-02-28T06:48:33;99413.05;;;-4.81;100.00
70250;BME280;57644;48.416;-123.374;2023-02-28T06:51:05;99414.10;;;-5.02;100.00
70250;BME280;57644;48.416;-123.374;2023-02-28T06:53:34;99412.56;;;-4.95;100.00
70250;BME280;57644;48.416;-123.374;2023-02-28T06:56:05;99415.47;;;-4.89;100.00
70250;BME280;57644;48.416;-123.374;2023-02-28T06:58:35;99418.18;;;-4.96;100.00
70250;BME280;57644;48.416;-123.374;2023-02-28T07:01:05;99420.44;;;-4.90;100.00
70250;BME280;57644;48.416;-123.374;2023-02-28T07:03:36;99418.17;;;-4.94;100.00
70250;BME280;57644;48.416;-123.374;2023-02-28T07:06:07;99416.66;;;-5.36;100.00
70250;BME280;57644;48.416;-123.374;2023-02-28T07:08:38;99414.83;;;-5.13;100.00
70250;BME280;57644;48.416;-123.374;2023-02-28T07:11:08;99415.68;;;-5.19;100.00
70250;BME280;57644;48.416;-123.374;2023-02-28T07:13:38;99417.94;;;-5.05;100.00
70250;BME280;57644;48.416;-123.374;2023-02-28T07:16:10;99422.12;;;-5.11;100.00
70250;BME280;57644;48.416;-123.374;2023-02-28T07:18:40;99418.80;;;-5.10;100.00
70250;BME280;57644;48.416;-123.374;2023-02-28T07:21:11;99423.75;;;-5.05;100.00
70250;BME280;57644;48.416;-123.374;2023-02-28T07:23:42;99425.75;;;-5.31;100.00
70250;BME280;57644;48.416;-123.374;2023-02-28T07:26:14;99428.23;;;-5.06;100.00
70250;BME280;57644;48.416;-123.374;2023-02-28T07:28:43;99430.68;;;-4.99;100.00
70250;BME280;57644;48.416;-123.374;2023-02-28T07:31:14;99432.17;;;-4.93;100.00
70250;BME280;57644;48.416;-123.374;2023-02-28T07:36:16;99423.65;;;-4.92;100.00
70250;BME280;57644;48.416;-123.374;2023-02-28T07:38:47;99425.10;;;-4.95;100.00
70250;BME280;57644;48.416;-123.374;2023-02-28T07:41:16;99425.73;;;-4.82;100.00
70250;BME280;57644;48.416;-123.374;2023-02-28T07:43:46;99424.35;;;-5.05;100.00
70250;BME280;57644;48.416;-123.374;2023-02-28T07:46:17;99425.38;;;-5.21;100.00
70250;BME280;57644;48.416;-123.374;2023-02-28T07:48:47;99424.26;;;-5.16;100.00
70250;BME280;57644;48.416;-123.374;2023-02-28T07:51:18;99418.94;;;-5.20;100.00
70250;BME280;57644;48.416;-123.374;2023-02-28T07:53:49;99418.32;;;-5.23;100.00
70250;BME280;57644;48.416;-123.374;2023-02-28T07:56:19;99420.79;;;-5.22;100.00
70250;BME280;57644;48.416;-123.374;2023-02-28T07:58:50;99417.76;;;-5.09;100.00
70250;BME280;57644;48.416;-123.374;2023-02-28T08:01:20;99418.05;;;-5.07;100.00
70250;BME280;57644;48.416;-123.374;2023-02-28T08:03:51;99417.23;;;-5.12;100.00
70250;BME280;57644;48.416;-123.374;2023-02-28T08:06:24;99415.24;;;-5.09;100.00
70250;BME280;57644;48.416;-123.374;2023-02-28T08:08:53;99417.95;;;-5.03;100.00
70250;BME280;57644;48.416;-123.374;2023-02-28T08:11:23;99418.11;;;-5.02;100.00
70250;BME280;57644;48.416;-123.374;2023-02-28T08:13:55;99416.30;;;-5.23;100.00
70250;BME280;57644;48.416;-123.374;2023-02-28T08:16:24;99415.32;;;-5.12;100.00
70250;BME280;57644;48.416;-123.374;2023-02-28T08:18:55;99413.69;;;-5.01;100.00
70250;BME280;57644;48.416;-123.374;2023-02-28T08:21:25;99415.88;;;-5.10;100.00
70250;BME280;57644;48.416;-123.374;2023-02-28T08:23:56;99415.16;;;-5.27;100.00
70250;BME280;57644;48.416;-123.374;2023-02-28T08:26:27;99418.08;;;-5.37;100.00
70250;BME280;57644;48.416;-123.374;2023-02-28T08:28:57;99419.39;;;-5.21;100.00
70250;BME280;57644;48.416;-123.374;2023-02-28T08:31:28;99420.78;;;-5.30;100.00
70250;BME280;57644;48.416;-123.374;2023-02-28T08:33:59;99420.22;;;-5.26;100.00
70250;BME280;57644;48.416;-123.374;2023-02-28T08:36:29;99418.42;;;-5.38;100.00
70250;BME280;57644;48.416;-123.374;2023-02-28T08:39:00;99419.84;;;-5.40;100.00
70250;BME280;57644;48.416;-123.374;2023-02-28T08:41:31;99418.99;;;-5.61;100.00
70250;BME280;57644;48.416;-123.374;2023-02-28T08:44:01;99417.91;;;-5.35;100.00
70250;BME280;57644;48.416;-123.374;2023-02-28T08:46:32;99417.68;;;-5.35;100.00
70250;BME280;57644;48.416;-123.374;2023-02-28T08:49:03;99418.96;;;-5.35;100.00
70250;BME280;57644;48.416;-123.374;2023-02-28T08:51:33;99417.30;;;-5.24;100.00
70250;BME280;57644;48.416;-123.374;2023-02-28T08:54:04;99423.22;;;-5.37;100.00
70250;BME280;57644;48.416;-123.374;2023-02-28T08:56:34;99424.70;;;-5.44;100.00
70250;BME280;57644;48.416;-123.374;2023-02-28T08:59:08;99427.60;;;-5.40;100.00
70250;BME280;57644;48.416;-123.374;2023-02-28T09:01:36;99428.32;;;-5.34;100.00
70250;BME280;57644;48.416;-123.374;2023-02-28T09:04:07;99430.80;;;-5.17;100.00
70250;BME280;57644;48.416;-123.374;2023-02-28T09:06:37;99430.74;;;-5.30;100.00
70250;BME280;57644;48.416;-123.374;2023-02-28T09:09:08;99430.45;;;-5.34;100.00
70250;BME280;57644;48.416;-123.374;2023-02-28T09:11:38;99427.27;;;-5.26;100.00
70250;BME280;57644;48.416;-123.374;2023-02-28T09:14:09;99427.21;;;-5.28;100.00
70250;BME280;57644;48.416;-123.374;2023-02-28T09:16:40;99430.25;;;-5.32;100.00
70250;BME280;57644;48.416;-123.374;2023-02-28T09:19:11;99427.70;;;-5.33;100.00
70250;BME280;57644;48.416;-123.374;2023-02-28T09:21:41;99427.40;;;-5.34;100.00
70250;BME280;57644;48.416;-123.374;2023-02-28T09:24:12;99427.23;;;-5.16;100.00
70250;BME280;57644;48.416;-123.374;2023-02-28T09:26:42;99425.93;;;-5.25;100.00
70250;BME280;57644;48.416;-123.374;2023-02-28T09:29:13;99426.42;;;-5.11;100.00
70250;BME280;57644;48.416;-123.374;2023-02-28T09:31:43;99425.09;;;-5.15;100.00
70250;BME280;57644;48.416;-123.374;2023-02-28T09:34:14;99425.30;;;-5.31;100.00
70250;BME280;57644;48.416;-123.374;2023-02-28T09:36:45;99425.53;;;-5.29;100.00
70250;BME280;57644;48.416;-123.374;2023-02-28T09:39:15;99427.66;;;-5.25;100.00
70250;BME280;57644;48.416;-123.374;2023-02-28T09:41:48;99429.00;;;-5.11;100.00
70250;BME280;57644;48.416;-123.374;2023-02-28T09:44:22;99428.68;;;-5.15;100.00
70250;BME280;57644;48.416;-123.374;2023-02-28T09:46:49;99428.70;;;-5.11;100.00
70250;BME280;57644;48.416;-123.374;2023-02-28T09:49:21;99427.14;;;-5.03;100.00
70250;BME280;57644;48.416;-123.374;2023-02-28T09:51:53;99428.08;;;-5.00;100.00
70250;BME280;57644;48.416;-123.374;2023-02-28T09:54:21;99429.17;;;-5.00;100.00
70250;BME280;57644;48.416;-123.374;2023-02-28T09:56:53;99430.00;;;-5.01;100.00
70250;BME280;57644;48.416;-123.374;2023-02-28T09:59:33;99428.49;;;-5.01;100.00
70250;BME280;57644;48.416;-123.374;2023-02-28T10:01:56;99427.14;;;-5.11;100.00
70250;BME280;57644;48.416;-123.374;2023-02-28T10:04:35;99426.26;;;-5.31;100.00
70250;BME280;57644;48.416;-123.374;2023-02-28T10:06:53;99425.58;;;-5.27;100.00
70250;BME280;57644;48.416;-123.374;2023-02-28T10:09:26;99425.12;;;-5.25;100.00
70250;BME280;57644;48.416;-123.374;2023-02-28T10:11:57;99422.41;;;-5.31;100.00
70250;BME280;57644;48.416;-123.374;2023-02-28T10:14:27;99423.34;;;-5.36;100.00
70250;BME280;57644;48.416;-123.374;2023-02-28T10:16:58;99419.34;;;-5.37;100.00
70250;BME280;57644;48.416;-123.374;2023-02-28T10:19:30;99416.42;;;-5.52;100.00
70250;BME280;57644;48.416;-123.374;2023-02-28T10:22:00;99419.33;;;-5.89;100.00
70250;BME280;57644;48.416;-123.374;2023-02-28T10:24:30;99419.48;;;-5.68;100.00
70250;BME280;57644;48.416;-123.374;2023-02-28T10:27:01;99419.87;;;-5.71;100.00
70250;BME280;57644;48.416;-123.374;2023-02-28T10:29:32;99412.80;;;-5.88;100.00
70250;BME280;57644;48.416;-123.374;2023-02-28T10:32:01;99414.49;;;-5.73;100.00
70250;BME280;57644;48.416;-123.374;2023-02-28T10:34:30;99411.34;;;-5.62;100.00
70250;BME280;57644;48.416;-123.374;2023-02-28T10:37:00;99413.30;;;-5.53;100.00
70250;BME280;57644;48.416;-123.374;2023-02-28T10:39:36;99414.79;;;-5.70;100.00
70250;BME280;57644;48.416;-123.374;2023-02-28T10:42:01;99416.74;;;-5.79;100.00
70250;BME280;57644;48.416;-123.374;2023-02-28T10:44:32;99416.05;;;-5.93;100.00
70250;BME280;57644;48.416;-123.374;2023-02-28T10:47:03;99416.57;;;-6.01;100.00
70250;BME280;57644;48.416;-123.374;2023-02-28T10:49:34;99413.48;;;-6.05;100.00
70250;BME280;57644;48.416;-123.374;2023-02-28T10:52:04;99413.61;;;-5.76;100.00
70250;BME280;57644;48.416;-123.374;2023-02-28T10:54:36;99414.44;;;-5.84;100.00
70250;BME280;57644;48.416;-123.374;2023-02-28T10:57:14;99412.74;;;-5.61;100.00
70250;BME280;57644;48.416;-123.374;2023-02-28T10:59:37;99413.04;;;-5.61;100.00
70250;BME280;57644;48.416;-123.374;2023-02-28T11:04:38;99415.39;;;-5.44;100.00
70250;BME280;57644;48.416;-123.374;2023-02-28T11:07:17;99413.95;;;-5.41;100.00
70250;BME280;57644;48.416;-123.374;2023-02-28T11:09:40;99413.67;;;-5.34;100.00
70250;BME280;57644;48.416;-123.374;2023-02-28T11:14:47;99415.05;;;-5.29;100.00
70250;BME280;57644;48.416;-123.374;2023-02-28T11:17:20;99413.00;;;-5.26;100.00
70250;BME280;57644;48.416;-123.374;2023-02-28T11:19:46;99411.16;;;-5.25;100.00
70250;BME280;57644;48.416;-123.374;2023-02-28T11:22:18;99413.29;;;-5.22;100.00
70250;BME280;57644;48.416;-123.374;2023-02-28T11:24:45;99410.65;;;-5.14;100.00
70250;BME280;57644;48.416;-123.374;2023-02-28T11:29:48;99408.01;;;-5.38;100.00
70250;BME280;57644;48.416;-123.374;2023-02-28T11:32:19;99407.29;;;-5.49;100.00
70250;BME280;57644;48.416;-123.374;2023-02-28T11:34:46;99409.72;;;-5.38;100.00
70250;BME280;57644;48.416;-123.374;2023-02-28T11:37:18;99414.68;;;-5.33;100.00
70250;BME280;57644;48.416;-123.374;2023-02-28T11:39:47;99411.64;;;-5.39;100.00
70250;BME280;57644;48.416;-123.374;2023-02-28T11:42:29;99415.31;;;-5.33;100.00
70250;BME280;57644;48.416;-123.374;2023-02-28T11:44:59;99417.74;;;-5.37;100.00
70250;BME280;57644;48.416;-123.374;2023-02-28T11:47:25;99421.42;;;-5.35;100.00
70250;BME280;57644;48.416;-123.374;2023-02-28T11:49:58;99421.33;;;-5.37;100.00
70250;BME280;57644;48.416;-123.374;2023-02-28T11:52:24;99424.16;;;-5.41;100.00
70250;BME280;57644;48.416;-123.374;2023-02-28T11:55:00;99425.80;;;-5.35;100.00
70250;BME280;57644;48.416;-123.374;2023-02-28T11:57:31;99426.70;;;-5.30;100.00
70250;BME280;57644;48.416;-123.374;2023-02-28T11:59:58;99428.82;;;-5.28;100.00
70250;BME280;57644;48.416;-123.374;2023-02-28T12:02:26;99432.37;;;-5.23;100.00
70250;BME280;57644;48.416;-123.374;2023-02-28T12:05:08;99431.92;;;-5.38;100.00
70250;BME280;57644;48.416;-123.374;2023-02-28T12:07:31;99433.07;;;-5.47;100.00
70250;BME280;57644;48.416;-123.374;2023-02-28T12:10:01;99442.38;;;-5.58;100.00
70250;BME280;57644;48.416;-123.374;2023-02-28T12:12:36;99444.38;;;-5.48;100.00
70250;BME280;57644;48.416;-123.374;2023-02-28T12:15:05;99445.53;;;-5.50;100.00
70250;BME280;57644;48.416;-123.374;2023-02-28T12:17:38;99448.50;;;-5.39;100.00
70250;BME280;57644;48.416;-123.374;2023-02-28T12:20:05;99450.92;;;-5.36;100.00
70250;BME280;57644;48.416;-123.374;2023-02-28T12:22:30;99455.65;;;-5.35;100.00
70250;BME280;57644;48.416;-123.374;2023-02-28T12:27:31;99465.06;;;-5.26;100.00
70250;BME280;57644;48.416;-123.374;2023-02-28T12:30:03;99469.14;;;-5.22;100.00
70250;BME280;57644;48.416;-123.374;2023-02-28T12:32:33;99474.90;;;-5.35;100.00
70250;BME280;57644;48.416;-123.374;2023-02-28T12:35:04;99479.77;;;-5.51;100.00
70250;BME280;57644;48.416;-123.374;2023-02-28T12:37:35;99481.85;;;-5.55;100.00
70250;BME280;57644;48.416;-123.374;2023-02-28T12:40:05;99486.13;;;-5.67;100.00
70250;BME280;57644;48.416;-123.374;2023-02-28T12:42:36;99488.17;;;-5.75;100.00
70250;BME280;57644;48.416;-123.374;2023-02-28T12:45:10;99494.11;;;-5.66;100.00
70250;BME280;57644;48.416;-123.374;2023-02-28T12:47:34;99497.18;;;-5.71;100.00
70250;BME280;57644;48.416;-123.374;2023-02-28T12:50:07;99498.49;;;-5.64;100.00
70250;BME280;57644;48.416;-123.374;2023-02-28T12:52:41;99503.06;;;-5.58;100.00
70250;BME280;57644;48.416;-123.374;2023-02-28T12:55:13;99505.88;;;-5.60;100.00
70250;BME280;57644;48.416;-123.374;2023-02-28T12:57:40;99512.46;;;-5.55;100.00
70250;BME280;57644;48.416;-123.374;2023-02-28T13:00:13;99516.71;;;-5.57;100.00